Kezdőlap
METAR-TAF:

METAR-TAF

Repülőterek :

Pilanesberg International Airport

Sun City, Dél-afrikai Köztársaság

földrajzi szélesség: 25-20-01S, földrajzi hosszúság: 027-10-24E, magasság: 1040 m

Jelenlegi meteorológiai megfigyelések

A jelentés 36 perccel ezelõtt készült, 11:00 UTC
Északnyugati szél 11 kt széllökések: 21 kt
Hőmérséklet 37°C
Páratartalom 24%
Légköri nyomás 1013 hPa

METAR: FAPN 051100Z AUTO 32011G21KT //// // ////// 37/13 Q1013

Idő: 13:36 (11:36 UTC)


TAF: hiányzik

Meteorológiai megfigyelések és előrejelzések több, mint 4000 repülőtéren (METAR és TAF jelentéseket).

A térképen piros és sárga pontok jelzik az elérhető meteorológiai állomásokat.

Mozgassa az egeret a pont fölött, hogy megjelenjen az állomás neve.

Azután kattintson az időjárási megfigyelések és előrejelzések megtekintéséhez.

A térkép megváltoztatása: kattintson a fekete keresztel jelölt zöld gombra ráközelítéshez, a vonallal jelölt zöld gombra távolításhoz, vagy a zöld nyilakra a szomszédos térképek eléréséhez.


METAR-TAF: